Time;durP1;ratioP1;P1;durP2;ratioP2;P2;SDS_P1;SDS_P2;PMS_P1;PMS_P2;Temp;Humidity;BMP_temperature;BMP_pressure;BME280_temperature;BME280_humidity;BME280_pressure;Samples;Min_cycle;Max_cycle;Signal;HPM_P1;HPM_P2
2022/04/21 00:00:00;;;;;;;26.10;21.40;;;;;;;8.68;83.00;100042.02;88187;1274;86567;-59
2022/04/21 00:02:10;;;;;;;28.80;22.30;;;;;;;8.70;83.13;100042.08;88194;1274;95883;-58
2022/04/21 00:04:19;;;;;;;30.00;22.50;;;;;;;8.71;83.19;100044.45;88193;1275;78617;-69
2022/04/21 00:06:28;;;;;;;30.20;23.40;;;;;;;8.70;83.17;100042.78;88193;1275;80863;-68
2022/04/21 00:08:37;;;;;;;31.60;23.00;;;;;;;8.68;83.11;100046.95;88178;1274;98444;-57
2022/04/21 00:10:45;;;;;;;28.20;22.60;;;;;;;8.65;83.12;100041.63;88180;1274;88884;-58
2022/04/21 00:12:57;;;;;;;30.20;21.50;;;;;;;8.62;83.23;100043.09;88161;1274;96127;-58
2022/04/21 00:15:12;;;;;;;28.70;22.00;;;;;;;8.62;83.27;100040.42;88167;1274;82766;-69
2022/04/21 00:17:22;;;;;;;29.10;22.20;;;;;;;8.63;83.25;100043.49;88213;1275;80535;-70
2022/04/21 00:19:34;;;;;;;28.10;21.30;;;;;;;8.58;83.28;100036.55;88196;1274;96695;-70
2022/04/21 00:24:12;;;;;;;27.70;21.10;;;;;;;8.62;83.29;100041.42;88145;1274;95212;-58
2022/04/21 00:26:21;;;;;;;28.10;21.40;;;;;;;8.65;83.45;100039.80;88176;1274;78858;-58
2022/04/21 00:28:30;;;;;;;30.30;22.40;;;;;;;8.66;83.40;100040.60;88154;1274;81632;-68
2022/04/21 00:30:39;;;;;;;27.70;21.50;;;;;;;8.69;83.43;100042.23;88189;1274;98791;-69
2022/04/21 00:32:48;;;;;;;29.50;21.40;;;;;;;8.67;83.56;100041.73;88174;1274;88842;-70
2022/04/21 00:34:57;;;;;;;26.60;20.90;;;;;;;8.64;83.50;100039.04;88169;1274;94838;-59
2022/04/21 00:37:06;;;;;;;30.50;23.00;;;;;;;8.64;83.59;100041.16;88192;1274;80799;-59
2022/04/21 00:39:18;;;;;;;30.70;22.70;;;;;;;8.67;83.63;100039.22;88151;1276;83356;-70
2022/04/21 00:41:30;;;;;;;30.60;22.20;;;;;;;8.66;83.70;100035.75;88154;1274;97905;-70
2022/04/21 00:43:40;;;;;;;28.10;21.70;;;;;;;8.64;83.78;100029.15;88183;1273;88510;-69
2022/04/21 00:45:51;;;;;;;40.50;30.10;;;;;;;8.66;83.84;100028.21;88197;1274;95389;-69
2022/04/21 00:48:02;;;;;;;40.40;28.70;;;;;;;8.65;83.78;100027.63;88179;1273;79990;-69
2022/04/21 00:50:14;;;;;;;35.30;26.30;;;;;;;8.65;83.79;100026.02;88213;1273;80789;-59
2022/04/21 00:52:22;;;;;;;34.60;24.20;;;;;;;8.68;83.73;100025.84;88199;1274;99062;-58
2022/04/21 00:54:34;;;;;;;28.70;23.50;;;;;;;8.71;83.72;100028.46;88200;1274;89615;-69
2022/04/21 00:56:44;;;;;;;33.30;23.70;;;;;;;8.70;83.77;100029.11;88195;1274;95551;-70
2022/04/21 00:58:54;;;;;;;30.40;23.40;;;;;;;8.69;83.73;100029.29;88192;1274;81354;-58
2022/04/21 01:02:46;;;;;;;30.50;22.60;;;;;;;8.67;83.79;100029.72;88223;1273;80963;-59
2022/04/21 01:03:33;;;;;;;29.60;21.60;;;;;;;8.67;83.79;100029.68;88185;1274;99543;-59
2022/04/21 01:05:42;;;;;;;27.80;21.30;;;;;;;8.68;83.85;100028.38;88213;1274;87924;-59
2022/04/21 01:07:50;;;;;;;30.40;23.20;;;;;;;8.66;83.92;100031.41;88199;1274;95349;-58
2022/04/21 01:10:02;;;;;;;28.60;22.00;;;;;;;8.67;83.95;100029.86;88190;1274;81626;-58
2022/04/21 01:12:16;;;;;;;45.70;32.60;;;;;;;8.70;83.98;100028.29;88183;1274;83614;-59
2022/04/21 01:14:25;;;;;;;46.80;31.90;;;;;;;8.69;83.93;100031.09;88237;1274;98739;-58
2022/04/21 01:16:34;;;;;;;47.70;33.50;;;;;;;8.66;84.08;100028.55;88203;1274;85727;-58
2022/04/21 01:18:42;;;;;;;40.10;28.60;;;;;;;8.67;84.10;100025.55;88179;1274;95532;-69
2022/04/21 01:20:51;;;;;;;41.50;29.90;;;;;;;8.70;84.05;100033.45;88186;1274;79238;-70
2022/04/21 01:23:00;;;;;;;43.50;33.70;;;;;;;8.72;84.09;100034.77;88194;1274;82604;-70
2022/04/21 01:25:12;;;;;;;42.00;30.90;;;;;;;8.72;84.09;100035.35;88208;1274;99052;-60
2022/04/21 01:27:23;;;;;;;29.50;22.00;;;;;;;8.72;84.22;100032.16;88215;1273;88584;-59
2022/04/21 01:29:32;;;;;;;26.60;19.90;;;;;;;8.67;84.24;100031.14;88186;1274;95237;-70
2022/04/21 01:31:40;;;;;;;26.80;19.80;;;;;;;8.66;84.38;100030.95;88181;1274;81096;-72
2022/04/21 01:33:50;;;;;;;25.60;19.30;;;;;;;8.66;84.46;100025.66;88179;1274;81101;-58
2022/04/21 01:36:01;;;;;;;27.50;19.80;;;;;;;8.69;84.48;100020.86;88200;1273;99500;-60
2022/04/21 01:43:07;;;;;;;25.80;19.50;;;;;;;8.72;84.55;100010.95;88186;1274;81656;-69
2022/04/21 01:45:16;;;;;;;27.80;21.30;;;;;;;8.72;84.50;100009.50;88223;1274;83362;-59
2022/04/21 01:47:25;;;;;;;26.30;20.70;;;;;;;8.75;84.56;100004.82;88193;1274;99403;-62
2022/04/21 01:49:34;;;;;;;28.50;20.60;;;;;;;8.73;84.71;100007.27;88205;1274;88919;-58
2022/04/21 01:51:43;;;;;;;27.20;20.90;;;;;;;8.72;84.73;100004.41;88174;1274;95115;-59
2022/04/21 01:53:52;;;;;;;30.10;21.20;;;;;;;8.69;84.76;100003.21;88156;1274;79084;-60
2022/04/21 01:56:05;;;;;;;27.60;20.00;;;;;;;8.70;84.76;100003.43;88187;1274;81999;-59
2022/04/21 01:58:17;;;;;;;27.40;20.50;;;;;;;8.69;84.75;100003.58;88217;1274;100041;-60
2022/04/21 02:00:26;;;;;;;26.80;19.80;;;;;;;8.69;84.81;100003.91;88167;1274;88934;-58
2022/04/21 02:02:35;;;;;;;23.60;19.10;;;;;;;8.67;84.82;100002.42;88174;1274;95517;-58
2022/04/21 02:04:44;;;;;;;25.30;19.20;;;;;;;8.67;85.01;99999.00;88223;1274;79996;-69
2022/04/21 02:06:53;;;;;;;26.60;19.60;;;;;;;8.66;84.97;100000.91;88190;1274;81013;-70
2022/04/21 02:09:01;;;;;;;26.90;20.80;;;;;;;8.64;85.01;99999.49;88189;1274;99426;-69
2022/04/21 02:11:10;;;;;;;24.10;18.20;;;;;;;8.61;85.12;99996.34;88204;1274;88051;-70
2022/04/21 02:13:20;;;;;;;26.20;19.90;;;;;;;8.60;85.19;99993.39;88179;1274;93093;-63
2022/04/21 02:15:29;;;;;;;25.70;19.00;;;;;;;8.63;85.03;99990.69;88158;1274;81054;-69
2022/04/21 02:17:39;;;;;;;23.60;17.90;;;;;;;8.65;85.13;99989.73;88221;1274;81172;-71
2022/04/21 02:19:48;;;;;;;24.70;18.30;;;;;;;8.65;85.14;99988.52;88177;1274;100018;-70
2022/04/21 02:21:57;;;;;;;26.50;18.60;;;;;;;8.65;85.30;99987.98;88212;1274;88989;-69
2022/04/21 02:24:08;;;;;;;25.70;18.50;;;;;;;8.63;85.19;99984.60;88214;1274;95899;-58
2022/04/21 02:26:16;;;;;;;23.30;17.80;;;;;;;8.65;85.18;99986.99;88221;1274;80569;-59
2022/04/21 02:28:28;;;;;;;22.60;17.50;;;;;;;8.65;85.30;99981.97;88191;1274;83566;-59
2022/04/21 02:30:37;;;;;;;20.40;16.50;;;;;;;8.67;85.22;99977.23;88190;1274;100023;-59
2022/04/21 02:32:49;;;;;;;22.30;16.00;;;;;;;8.68;85.13;99973.00;88194;1273;89518;-59
2022/04/21 02:35:02;;;;;;;20.80;16.90;;;;;;;8.69;85.34;99976.61;88216;1274;93766;-57
2022/04/21 02:37:14;;;;;;;19.20;16.60;;;;;;;8.70;85.29;99973.80;88197;1274;81610;-61
2022/04/21 02:39:23;;;;;;;18.90;15.60;;;;;;;8.72;85.21;99971.27;88226;1274;81642;-70
2022/04/21 02:41:32;;;;;;;19.60;16.20;;;;;;;8.72;85.28;99968.90;88177;1274;100026;-70
2022/04/21 02:43:43;;;;;;;19.30;14.80;;;;;;;8.72;85.28;99973.39;88222;1274;88639;-70
2022/04/21 02:45:55;;;;;;;17.30;14.30;;;;;;;8.74;85.31;99973.86;88191;1274;96491;-71
2022/04/21 02:48:05;;;;;;;17.40;13.80;;;;;;;8.75;85.30;99972.84;88177;1274;80987;-70
2022/04/21 02:50:19;;;;;;;16.40;13.10;;;;;;;8.77;85.32;99970.33;88188;1274;81810;-60
2022/04/21 02:52:26;;;;;;;;;;;;;;;8.75;85.37;99971.72;88223;1274;100002;-59
2022/04/21 02:59:29;;;;;;;14.00;12.40;;;;;;;8.79;85.34;99967.15;88176;1273;80544;-62
2022/04/21 03:01:37;;;;;;;14.90;12.60;;;;;;;8.78;85.37;99971.21;88196;1274;82489;-60
2022/04/21 03:03:46;;;;;;;14.80;12.30;;;;;;;8.77;85.34;99968.84;88186;1273;98237;-71
2022/04/21 03:05:58;;;;;;;13.80;12.10;;;;;;;8.79;85.12;99968.40;88181;1274;88877;-70
2022/04/21 03:08:08;;;;;;;13.10;11.30;;;;;;;8.81;85.25;99967.20;88212;1274;95425;-70
2022/04/21 03:10:17;;;;;;;14.40;11.70;;;;;;;8.75;85.45;99971.84;88190;1273;80174;-59
2022/04/21 03:12:28;;;;;;;12.50;10.90;;;;;;;8.73;85.49;99969.54;88205;1273;80858;-60
2022/04/21 03:14:40;;;;;;;12.20;10.30;;;;;;;8.74;85.51;99974.47;88220;1273;100266;-69
2022/04/21 03:16:51;;;;;;;13.30;10.00;;;;;;;8.68;85.55;99973.00;88203;1273;85494;-71
2022/04/21 03:19:01;;;;;;;12.60;10.70;;;;;;;8.69;85.53;99974.46;88165;1274;95719;-70
2022/04/21 03:26:02;;;;;;;11.70;10.50;;;;;;;8.72;85.65;99979.47;88185;1273;98242;-69
2022/04/21 03:28:20;;;;;;;14.00;11.50;;;;;;;8.71;85.58;99977.29;88168;1274;89189;-68
2022/04/21 03:30:28;;;;;;;12.40;11.00;;;;;;;8.72;85.53;99978.83;88175;1274;95653;-59
2022/04/21 03:32:37;;;;;;;14.10;11.80;;;;;;;8.70;85.65;99976.88;88191;1274;80374;-58
2022/04/21 03:34:47;;;;;;;13.30;11.20;;;;;;;8.73;85.59;99976.54;88177;1274;80139;-58
2022/04/21 03:36:56;;;;;;;12.30;10.60;;;;;;;8.77;85.50;99981.05;88193;1274;100446;-58
2022/04/21 03:39:05;;;;;;;13.40;11.40;;;;;;;8.77;85.50;99979.36;88229;1274;88434;-69
2022/04/21 03:41:14;;;;;;;13.40;11.60;;;;;;;8.80;85.51;99976.13;88158;1274;95628;-69
2022/04/21 03:43:26;;;;;;;14.40;11.60;;;;;;;8.80;85.51;99974.26;88168;1274;82788;-60
2022/04/21 03:45:35;;;;;;;15.10;11.90;;;;;;;8.81;85.76;99973.88;87249;1274;1312164;-58
2022/04/21 03:47:44;;;;;;;11.90;10.70;;;;;;;8.80;85.66;99975.26;88178;1274;99126;-59
2022/04/21 03:49:53;;;;;;;13.60;11.70;;;;;;;8.81;85.68;99969.35;88180;1274;87722;-58
2022/04/21 03:52:02;;;;;;;11.90;10.70;;;;;;;8.88;85.64;99970.74;88193;1274;95565;-58
2022/04/21 03:54:11;;;;;;;14.50;11.60;;;;;;;8.89;85.65;99971.98;88203;1274;79047;-70
2022/04/21 03:56:20;;;;;;;12.90;11.50;;;;;;;8.91;85.67;99972.66;88212;1274;81627;-69
2022/04/21 03:58:31;;;;;;;14.00;12.10;;;;;;;8.93;85.61;99972.89;88192;1274;100134;-68
2022/04/21 04:00:41;;;;;;;15.40;12.70;;;;;;;8.93;85.54;99969.57;88188;1274;89102;-69
2022/04/21 04:02:49;;;;;;;13.20;11.80;;;;;;;8.93;85.53;99969.45;88192;1273;93279;-68
2022/04/21 04:05:01;;;;;;;14.50;11.60;;;;;;;8.94;85.50;99971.41;88142;1274;81828;-69
2022/04/21 04:12:05;;;;;;;13.30;11.60;;;;;;;8.94;85.44;99974.98;88212;1274;88433;-60
2022/04/21 04:14:15;;;;;;;14.40;12.00;;;;;;;8.96;85.43;99976.90;88232;1274;93315;-58
2022/04/21 04:16:24;;;;;;;15.30;12.40;;;;;;;8.97;85.47;99975.36;88171;1274;81299;-59
2022/04/21 04:18:36;;;;;;;13.40;11.70;;;;;;;8.92;85.43;99974.55;88202;1274;83402;-59
2022/04/21 04:20:49;;;;;;;16.50;14.70;;;;;;;8.96;85.39;99976.19;88197;1274;96891;-58
2022/04/21 04:22:58;;;;;;;19.40;16.00;;;;;;;9.03;85.33;99977.65;88201;1274;87899;-60
2022/04/21 04:25:09;;;;;;;15.80;13.60;;;;;;;9.06;85.28;99976.56;88162;1274;95431;-58
2022/04/21 04:27:18;;;;;;;13.70;12.10;;;;;;;9.07;85.18;99979.64;88207;1273;81772;-59
2022/04/21 04:29:27;;;;;;;14.70;12.90;;;;;;;9.12;85.14;99983.51;88206;1273;82961;-57
2022/04/21 04:31:39;;;;;;;14.40;11.70;;;;;;;9.15;85.16;99986.53;88174;1273;99241;-58
2022/04/21 04:33:48;;;;;;;12.60;11.20;;;;;;;9.14;85.29;99987.55;88200;1273;88963;-68
2022/04/21 04:35:57;;;;;;;13.90;12.30;;;;;;;9.19;85.11;99997.56;88142;1273;95664;-70
2022/04/21 04:38:06;;;;;;;15.20;11.80;;;;;;;9.18;85.12;100000.00;88169;1273;81514;-67
2022/04/21 04:40:17;;;;;;;13.20;11.30;;;;;;;9.21;85.00;99999.25;88169;1276;81121;-58
2022/04/21 04:42:26;;;;;;;12.40;11.10;;;;;;;9.22;84.92;100003.15;88209;1273;98864;-59
2022/04/21 04:44:35;;;;;;;14.50;12.30;;;;;;;9.23;84.87;100001.96;88203;1273;86793;-60
2022/04/21 04:46:44;;;;;;;14.80;11.60;;;;;;;9.23;84.77;100007.19;88170;1274;95135;-60
2022/04/21 04:48:53;;;;;;;12.50;11.20;;;;;;;9.22;84.82;100004.94;88185;1273;79986;-68
2022/04/21 04:51:02;;;;;;;14.70;11.20;;;;;;;9.22;84.74;100004.73;88218;1273;80547;-66
2022/04/21 04:53:15;;;;;;;13.60;11.50;;;;;;;9.22;84.77;100002.98;88195;1273;99520;-68
2022/04/21 04:55:27;;;;;;;13.80;11.40;;;;;;;9.22;84.77;100004.19;88192;1274;88437;-71
2022/04/21 04:57:35;;;;;;;14.10;12.00;;;;;;;9.19;84.83;100001.14;88222;1274;93002;-67
2022/04/21 04:59:47;;;;;;;13.00;11.20;;;;;;;9.23;84.74;100003.36;88194;1273;81707;-58
2022/04/21 05:01:56;;;;;;;12.10;10.60;;;;;;;9.26;84.78;100002.55;88212;1274;83043;-59
2022/04/21 05:04:08;;;;;;;12.20;10.00;;;;;;;9.31;84.72;100002.17;88208;1274;98673;-65
2022/04/21 05:06:16;;;;;;;11.80;10.60;;;;;;;9.33;84.67;100006.51;88205;1273;88819;-64
2022/04/21 05:08:25;;;;;;;13.20;11.10;;;;;;;9.32;84.69;100005.63;88161;1274;95102;-58
2022/04/21 05:10:34;;;;;;;11.60;9.80;;;;;;;9.31;84.71;100006.33;88206;1273;80418;-58
2022/04/21 05:12:43;;;;;;;11.10;10.00;;;;;;;9.34;84.64;100006.60;88200;1273;81424;-60
2022/04/21 05:14:52;;;;;;;13.10;10.30;;;;;;;9.33;84.60;100008.58;88176;1274;98264;-68
2022/04/21 05:17:01;;;;;;;10.50;9.40;;;;;;;9.32;84.60;100008.78;88199;1273;89827;-67
2022/04/21 05:19:12;;;;;;;10.70;9.60;;;;;;;9.32;84.60;100008.27;88168;1274;96255;-60
2022/04/21 05:21:23;;;;;;;11.30;9.60;;;;;;;9.31;84.71;100008.60;88197;1274;81537;-58
2022/04/21 05:23:35;;;;;;;10.20;9.10;;;;;;;9.34;84.61;100006.44;88215;1273;81021;-66
2022/04/21 05:25:45;;;;;;;11.20;10.00;;;;;;;9.32;84.60;100006.70;88190;1274;100372;-68
2022/04/21 05:27:56;;;;;;;10.70;9.20;;;;;;;9.35;84.44;100014.36;88185;1273;87823;-67
2022/04/21 05:32:40;;;;;;;11.60;9.00;;;;;;;9.32;84.45;100016.50;88191;1274;80606;-64
2022/04/21 05:34:54;;;;;;;10.10;8.60;;;;;;;9.36;84.43;100014.64;88179;1274;82624;-66
2022/04/21 05:37:08;;;;;;;11.30;9.20;;;;;;;9.33;84.57;100014.67;88189;1274;98976;-66
2022/04/21 05:39:16;;;;;;;;;;;;;;;9.36;84.43;100014.63;88229;1274;87882;-58
2022/04/21 05:41:27;;;;;;;10.20;9.10;;;;;;;9.37;84.52;100017.25;88205;1274;94794;-60
2022/04/21 05:43:45;;;;;;;12.10;8.80;;;;;;;9.38;84.49;100016.86;88194;1274;80955;-64
2022/04/21 05:45:56;;;;;;;12.80;9.10;;;;;;;9.39;84.53;100020.14;88178;1274;80420;-65
2022/04/21 05:48:10;;;;;;;13.40;10.00;;;;;;;9.45;84.43;100022.15;88227;1274;98722;-64
2022/04/21 05:50:24;;;;;;;11.20;10.00;;;;;;;9.47;84.34;100020.77;88182;1274;89108;-65
2022/04/21 05:52:33;;;;;;;10.10;9.00;;;;;;;9.45;84.41;100025.38;88199;1274;95630;-65
2022/04/21 05:54:47;;;;;;;12.00;9.20;;;;;;;9.44;84.34;100018.69;88196;1274;80824;-58
2022/04/21 05:56:57;;;;;;;10.40;9.30;;;;;;;9.40;84.37;100019.34;88210;1274;80196;-58
2022/04/21 05:59:08;;;;;;;12.60;9.40;;;;;;;9.43;84.40;100019.02;88217;1275;100327;-59
2022/04/21 06:01:19;;;;;;;10.60;9.30;;;;;;;9.44;84.49;100020.02;88192;1274;90414;-60
2022/04/21 06:03:31;;;;;;;10.30;9.10;;;;;;;9.51;84.33;100021.95;88152;1274;95671;-60
2022/04/21 06:05:40;;;;;;;11.40;9.70;;;;;;;9.51;84.38;100022.13;88165;1274;81941;-60
2022/04/21 06:07:51;;;;;;;9.60;8.40;;;;;;;9.54;84.36;100020.54;88173;1274;83003;-60
2022/04/21 06:10:00;;;;;;;11.00;8.70;;;;;;;9.54;84.46;100022.29;88173;1274;99143;-69
2022/04/21 06:12:13;;;;;;;10.80;9.20;;;;;;;9.61;84.46;100024.67;88190;1274;87650;-68
2022/04/21 06:14:24;;;;;;;10.00;7.80;;;;;;;9.66;84.29;100020.58;88209;1273;92312;-66
2022/04/21 06:16:33;;;;;;;9.20;8.20;;;;;;;9.68;84.35;100021.42;88162;1273;82636;-65
2022/04/21 06:18:42;;;;;;;10.00;8.40;;;;;;;9.67;84.53;100016.58;88213;1275;80969;-65
2022/04/21 06:20:51;;;;;;;8.60;7.70;;;;;;;9.68;84.48;100022.92;88177;1274;98917;-66
2022/04/21 06:23:03;;;;;;;9.50;8.10;;;;;;;9.72;84.41;100021.27;88160;1274;89269;-65
2022/04/21 06:25:13;;;;;;;8.80;7.70;;;;;;;9.79;84.26;100022.33;88183;1274;95082;-66
2022/04/21 06:27:22;;;;;;;10.70;8.10;;;;;;;9.85;84.22;100022.21;88194;1274;83011;-66
2022/04/21 06:29:31;;;;;;;9.90;7.70;;;;;;;9.88;84.23;100020.71;88161;1274;82175;-66
2022/04/21 06:31:39;;;;;;;9.80;8.00;;;;;;;9.95;84.24;100023.67;88148;1275;98496;-67
2022/04/21 06:33:49;;;;;;;8.90;7.90;;;;;;;10.03;84.28;100023.34;88225;1274;87269;-59
2022/04/21 06:35:58;;;;;;;12.50;8.80;;;;;;;10.11;84.16;100024.33;88187;1274;95130;-59
2022/04/21 06:38:08;;;;;;;10.90;8.40;;;;;;;10.12;84.06;100026.36;88186;1275;79495;-58
2022/04/21 06:40:17;;;;;;;10.40;8.30;;;;;;;10.14;83.91;100029.23;88224;1273;80565;-58
2022/04/21 06:42:26;;;;;;;11.50;8.60;;;;;;;10.06;83.90;100026.21;88171;1274;98884;-59
2022/04/21 06:49:30;;;;;;;8.50;7.60;;;;;;;9.99;83.96;100023.70;88106;1275;79906;-58
2022/04/21 06:51:40;;;;;;;9.10;7.80;;;;;;;9.99;83.84;100023.00;88182;1274;81571;-61
2022/04/21 06:53:49;;;;;;;9.90;8.20;;;;;;;9.95;83.95;100023.64;88202;1274;99443;-66
2022/04/21 06:56:01;;;;;;;8.70;7.70;;;;;;;9.89;84.01;100021.35;88196;1274;89228;-66
2022/04/21 06:58:10;;;;;;;9.30;7.50;;;;;;;9.89;84.09;100020.63;88193;1274;93999;-67
2022/04/21 07:00:20;;;;;;;7.90;7.10;;;;;;;9.88;84.14;100023.08;88206;1274;79533;-67
2022/04/21 07:02:37;;;;;;;25.10;19.20;;;;;;;10.00;84.12;100024.64;88220;1274;81354;-66
2022/04/21 07:04:48;;;;;;;11.00;8.10;;;;;;;10.07;84.10;100025.27;88180;1274;98779;-59
2022/04/21 07:06:58;;;;;;;9.00;7.70;;;;;;;10.12;84.20;100029.77;88158;1275;89443;-59
2022/04/21 07:09:08;;;;;;;10.00;6.90;;;;;;;10.19;84.07;100030.71;88202;1275;94765;-67
2022/04/21 07:11:20;;;;;;;8.50;7.20;;;;;;;10.24;84.13;100030.80;88177;1274;79791;-67
2022/04/21 07:13:30;;;;;;;8.20;6.70;;;;;;;10.28;84.23;100031.86;88189;1275;81778;-65
2022/04/21 07:15:42;;;;;;;7.70;6.20;;;;;;;10.40;84.18;100036.27;88196;1273;99411;-66
2022/04/21 07:17:51;;;;;;;7.20;6.20;;;;;;;10.44;84.16;100037.88;88187;1274;88034;-66
2022/04/21 07:20:05;;;;;;;9.10;6.70;;;;;;;10.45;84.09;100035.56;88184;1275;95670;-58
2022/04/21 07:22:14;;;;;;;7.00;6.30;;;;;;;10.53;83.84;100034.74;88197;1275;80582;-58
2022/04/21 07:24:23;;;;;;;9.20;7.00;;;;;;;10.57;83.79;100037.14;88209;1274;82789;-67
2022/04/21 07:26:32;;;;;;;7.80;6.20;;;;;;;10.61;83.64;100039.58;88215;1274;99292;-66
2022/04/21 07:28:44;;;;;;;9.00;6.70;;;;;;;10.61;83.50;100040.91;88173;1274;88876;-65
2022/04/21 07:30:54;;;;;;;7.40;6.70;;;;;;;10.62;83.53;100043.20;88179;1274;93238;-66
2022/04/21 07:33:03;;;;;;;7.80;6.10;;;;;;;10.58;83.49;100042.55;88189;1275;79488;-68
2022/04/21 07:35:14;;;;;;;7.20;6.50;;;;;;;10.55;83.42;100045.80;88238;1275;81015;-67
2022/04/21 07:37:23;;;;;;;7.80;6.20;;;;;;;10.55;83.38;100046.48;88214;1273;98897;-67
2022/04/21 07:39:35;;;;;;;7.60;6.20;;;;;;;10.56;83.38;100048.31;88203;1274;89146;-67
2022/04/21 07:41:44;;;;;;;6.90;6.20;;;;;;;10.51;83.47;100047.27;88169;1275;95834;-65
2022/04/21 07:43:56;;;;;;;6.90;6.20;;;;;;;10.53;83.55;100051.33;88151;1275;80487;-68
2022/04/21 07:46:06;;;;;;;6.80;6.10;;;;;;;10.56;83.48;100045.44;88177;1274;82292;-67
2022/04/21 07:48:16;;;;;;;8.30;6.30;;;;;;;10.65;83.42;100043.48;88184;1274;99689;-66
2022/04/21 07:50:25;;;;;;;7.10;6.40;;;;;;;10.72;83.61;100041.67;88208;1275;87109;-60
2022/04/21 07:55:03;;;;;;;8.80;6.90;;;;;;;10.83;83.59;100039.38;88197;1275;80944;-65
2022/04/21 07:57:11;;;;;;;7.50;6.70;;;;;;;10.89;83.47;100045.43;88181;1275;82880;-67
2022/04/21 07:59:21;;;;;;;7.80;6.60;;;;;;;10.94;83.41;100053.28;88187;1274;99865;-67
2022/04/21 08:01:30;;;;;;;8.20;6.70;;;;;;;10.91;83.36;100048.64;88178;1275;87200;-66
2022/04/21 08:03:38;;;;;;;6.90;6.10;;;;;;;10.98;83.32;100049.89;88183;1275;95278;-67
2022/04/21 08:05:50;;;;;;;7.60;6.00;;;;;;;11.07;83.36;100047.11;88191;1275;79701;-67
2022/04/21 08:07:59;;;;;;;9.40;6.40;;;;;;;11.16;83.31;100044.77;88189;1275;81518;-67
2022/04/21 08:10:11;;;;;;;8.00;6.20;;;;;;;11.27;83.30;100044.39;88210;1274;98646;-66
2022/04/21 08:12:20;;;;;;;9.60;6.50;;;;;;;11.30;83.27;100046.03;88206;1275;87585;-69
2022/04/21 08:14:29;;;;;;;7.40;6.70;;;;;;;11.42;83.21;100039.70;88206;1275;93937;-59
2022/04/21 08:16:37;;;;;;;10.20;7.20;;;;;;;11.52;83.05;100037.27;88186;1275;79218;-60
2022/04/21 08:18:52;;;;;;;7.90;6.70;;;;;;;11.65;82.96;100040.73;88178;1274;80879;-69
2022/04/21 08:21:01;;;;;;;9.20;6.50;;;;;;;11.81;83.04;100036.13;88137;1274;100021;-69
2022/04/21 08:23:13;;;;;;;8.30;7.00;;;;;;;11.87;82.83;100034.38;88230;1274;87785;-69
2022/04/21 08:32:46;;;;;;;8.60;6.40;;;;;;;12.39;82.58;100030.30;88178;1275;99950;-60
2022/04/21 08:34:55;;;;;;;6.90;6.20;;;;;;;12.48;82.30;100027.91;88158;1274;89400;-68
2022/04/21 08:37:08;;;;;;;8.30;6.70;;;;;;;12.58;82.04;100023.52;88169;1274;95336;-68
2022/04/21 08:39:17;;;;;;;7.20;6.00;;;;;;;12.75;81.98;100020.56;88200;1274;81107;-68
2022/04/21 08:41:29;;;;;;;8.00;6.00;;;;;;;12.79;81.73;100023.81;88226;1274;81014;-68
2022/04/21 08:43:41;;;;;;;7.60;5.70;;;;;;;12.94;81.57;100017.42;88177;1274;99565;-59
2022/04/21 08:45:53;;;;;;;9.60;7.10;;;;;;;13.07;81.40;100014.86;88184;1275;89439;-60
2022/04/21 08:48:04;;;;;;;6.90;5.80;;;;;;;13.10;81.07;100016.06;88211;1274;94739;-60
2022/04/21 08:50:16;;;;;;;6.80;6.10;;;;;;;13.21;80.77;100011.92;88199;1275;79363;-60
2022/04/21 08:52:28;;;;;;;6.70;6.10;;;;;;;13.26;80.31;100012.39;88217;1274;81479;-59
2022/04/21 08:54:39;;;;;;;7.60;5.90;;;;;;;13.32;80.23;100006.02;88213;1273;98979;-60
2022/04/21 08:56:49;;;;;;;6.40;5.50;;;;;;;13.30;79.94;100006.08;88202;1273;87254;-59
2022/04/21 08:58:58;;;;;;;7.60;6.20;;;;;;;13.23;79.82;100005.12;88166;1274;95727;-59
2022/04/21 09:01:08;;;;;;;6.60;5.90;;;;;;;13.10;79.80;100007.12;88208;1273;79187;-60
2022/04/21 09:03:19;;;;;;;7.80;5.70;;;;;;;12.97;79.88;100005.36;88229;1273;81677;-59
2022/04/21 09:05:31;;;;;;;6.80;5.50;;;;;;;12.81;79.78;100004.66;88214;1274;98363;-68
2022/04/21 09:07:51;;;;;;;7.00;5.90;;;;;;;12.85;79.85;100005.23;88212;1273;88799;-71
2022/04/21 09:10:11;;;;;;;7.10;5.60;;;;;;;12.93;79.74;100003.04;88193;1273;95168;-68
2022/04/21 09:12:25;;;;;;;6.60;5.30;;;;;;;12.92;79.71;100003.99;88199;1274;83084;-59
2022/04/21 09:14:34;;;;;;;6.30;5.30;;;;;;;12.98;79.62;100004.60;88200;1274;82256;-60
2022/04/21 09:16:47;;;;;;;7.00;6.00;;;;;;;13.02;79.39;100006.97;88213;1274;99411;-65
2022/04/21 09:19:06;;;;;;;7.20;5.00;;;;;;;13.08;79.19;100006.17;88199;1273;88957;-68
2022/04/21 09:21:18;;;;;;;6.40;5.80;;;;;;;13.05;78.73;100000.53;88196;1273;93802;-68
2022/04/21 09:23:36;;;;;;;6.20;5.30;;;;;;;13.00;78.74;100000.76;88203;1274;82498;-58
2022/04/21 09:25:51;;;;;;;6.10;5.20;;;;;;;13.03;78.59;99995.79;88168;1274;82471;-59
2022/04/21 09:28:03;;;;;;;5.60;5.00;;;;;;;13.09;78.73;99996.29;88208;1273;98637;-58
2022/04/21 09:30:15;;;;;;;5.50;4.80;;;;;;;13.13;78.46;99991.73;88185;1274;87975;-59
2022/04/21 09:32:23;;;;;;;6.60;4.90;;;;;;;13.12;78.40;99990.90;88194;1273;93411;-60
2022/04/21 09:34:34;;;;;;;6.80;5.00;;;;;;;13.12;78.29;99992.77;88193;1274;79625;-66
2022/04/21 09:36:45;;;;;;;6.50;5.40;;;;;;;13.08;78.39;99988.65;88232;1274;82036;-67
2022/04/21 09:39:02;;;;;;;6.40;5.30;;;;;;;13.10;78.43;99991.61;88237;1273;98619;-67
2022/04/21 09:41:16;;;;;;;7.90;6.10;;;;;;;13.27;78.18;99991.48;88199;1274;88339;-68
2022/04/21 09:43:35;;;;;;;7.00;6.00;;;;;;;13.37;78.23;99990.98;88232;1274;93091;-59
2022/04/21 09:48:10;;;;;;;7.90;5.70;;;;;;;13.35;78.10;99987.23;88151;1274;83331;-59
2022/04/21 09:50:27;;;;;;;7.20;5.80;;;;;;;13.38;78.02;99986.16;88188;1274;99451;-60
2022/04/21 09:52:39;;;;;;;7.50;5.70;;;;;;;13.38;77.95;99983.45;88210;1274;89652;-60
2022/04/21 09:54:49;;;;;;;6.20;5.30;;;;;;;13.24;77.85;99983.78;88208;1275;94761;-68
2022/04/21 09:57:02;;;;;;;7.30;6.00;;;;;;;13.25;77.76;99983.40;88153;1274;81864;-70
2022/04/21 09:59:14;;;;;;;7.90;5.40;;;;;;;13.17;77.45;99987.87;88208;1274;81587;-59
2022/04/21 10:01:25;;;;;;;7.60;5.40;;;;;;;13.06;77.46;99983.25;88150;1276;96053;-59
2022/04/21 10:03:41;;;;;;;5.70;5.10;;;;;;;13.05;77.57;99986.27;88197;1276;87675;-60
2022/04/21 10:05:50;;;;;;;7.00;5.20;;;;;;;13.00;77.45;99983.95;88214;1274;95865;-60
2022/04/21 10:08:01;;;;;;;7.00;5.60;;;;;;;12.95;77.45;99983.55;88204;1274;78517;-60
2022/04/21 10:10:12;;;;;;;6.70;5.60;;;;;;;13.08;77.50;99981.55;88228;1274;82139;-70
2022/04/21 10:12:25;;;;;;;7.80;6.00;;;;;;;13.12;77.41;99981.05;88220;1274;99569;-69
2022/04/21 10:14:35;;;;;;;6.90;5.80;;;;;;;13.08;77.34;99988.23;88219;1274;88846;-60
2022/04/21 10:16:49;;;;;;;7.30;6.30;;;;;;;13.08;77.43;99983.32;88173;1274;95657;-60
2022/04/21 10:19:00;;;;;;;8.20;6.40;;;;;;;13.05;77.36;99978.89;88178;1274;80606;-60
2022/04/21 10:21:09;;;;;;;8.00;5.70;;;;;;;13.09;77.42;99978.19;88224;1274;82935;-59
2022/04/21 10:23:22;;;;;;;7.30;5.70;;;;;;;13.17;77.29;99980.09;88184;1274;98935;-59
2022/04/21 10:25:43;;;;;;;8.60;5.70;;;;;;;13.27;77.35;99984.98;88189;1274;87695;-69
2022/04/21 10:27:53;;;;;;;7.60;5.80;;;;;;;13.32;77.03;99990.91;88206;1274;93977;-69
2022/04/21 10:30:02;;;;;;;7.50;5.70;;;;;;;13.30;76.88;99993.30;88217;1274;77356;-59
2022/04/21 10:32:11;;;;;;;7.20;5.50;;;;;;;13.30;76.78;99989.68;88193;1275;81403;-59
2022/04/21 10:34:37;;;;;;;7.30;5.90;;;;;;;13.34;76.75;99983.81;88198;1274;99431;-69
2022/04/21 10:37:04;;;;;;;6.20;5.60;;;;;;;13.42;76.50;99985.19;88226;1274;88914;-71
2022/04/21 10:39:32;;;;;;;7.40;6.60;;;;;;;13.42;76.46;99985.73;88188;1274;95549;-61
2022/04/21 10:41:44;;;;;;;8.10;6.40;;;;;;;13.49;76.58;99986.31;88200;1275;79391;-59
2022/04/21 10:44:15;;;;;;;8.30;6.80;;;;;;;13.44;76.31;99989.23;88206;1274;81890;-70
2022/04/21 10:46:29;;;;;;;6.80;5.50;;;;;;;13.41;76.28;99988.41;88187;1275;99973;-70
2022/04/21 10:48:45;;;;;;;7.20;5.80;;;;;;;13.41;76.16;99986.55;88211;1275;89570;-60